Stewarton, United Kingdom
Current Conditions -  °F | °C
As of 9:20 AM on Monday 22 Dec 2014 (Local Time) from EGPK Reporting Station
Rain Showers Rain Showers  
Wind Chill: 44°   Ceiling: Unl
Heat Index: 48°   Visibility: 6mi
Dew Point: 45°   Wind: 10mph
Humidity: 87%   Direction: 250°WSW
Pressure: 29.68"   Gusts: NA
Location:  55.67°N, 4.5°W
Report Text: EGPK 220920Z 25009KT 9999 -SHRA FEW009 SCT025 09/07 Q1005
Loading
Personal Weather Stations






























Interactive Weather Map New forecast layout! Learn more

10-Day Weather Forecast

Advertisements
Track Severe Weather on mobile